createdAt,value
2023-01-08T08:34:45.849Z,44.52
2023-01-08T08:37:12.818Z,43.90
2023-01-08T08:39:39.551Z,43.82
2023-01-08T08:42:09.269Z,44.49
2023-01-08T08:44:42.944Z,44.14
2023-01-08T08:47:10.219Z,43.74
2023-01-08T08:49:38.745Z,43.08
2023-01-08T08:52:05.653Z,40.97
2023-01-08T08:54:32.371Z,40.58
2023-01-08T08:56:59.126Z,40.48
2023-01-08T08:59:26.126Z,39.94
2023-01-08T09:01:53.197Z,39.57
2023-01-08T09:04:19.949Z,39.61
2023-01-08T09:06:46.693Z,39.45
2023-01-08T09:09:15.056Z,39.69
2023-01-08T09:11:42.025Z,40.01
2023-01-08T09:14:09.438Z,40.49
2023-01-08T09:16:37.188Z,40.50
2023-01-08T09:19:04.293Z,41.83
2023-01-08T09:21:31.142Z,41.20
2023-01-08T09:23:58.185Z,40.11
2023-01-08T09:26:24.948Z,40.34
2023-01-08T09:28:51.773Z,41.03
2023-01-08T09:31:18.591Z,41.68
2023-01-08T09:33:47.680Z,41.50
2023-01-08T09:36:14.549Z,40.78
2023-01-08T09:38:41.392Z,41.51
2023-01-08T09:41:10.559Z,40.65
2023-01-08T09:43:38.867Z,40.34
2023-01-08T09:46:06.567Z,40.56
2023-01-08T09:48:36.009Z,39.68
2023-01-08T09:51:02.959Z,40.14
2023-01-08T09:53:29.820Z,40.59
2023-01-08T09:56:14.475Z,40.53
2023-01-08T09:58:51.870Z,42.55
2023-01-08T10:01:21.791Z,43.24
2023-01-08T10:03:56.010Z,40.40
2023-01-08T10:06:23.360Z,40.36
2023-01-08T10:08:50.527Z,40.31
2023-01-08T10:11:17.439Z,39.14
2023-01-08T10:13:53.310Z,38.80
2023-01-08T12:12:32.583Z,57.90
2023-01-08T12:15:05.182Z,53.50
2023-01-08T12:17:41.240Z,51.28
2023-01-08T12:20:24.496Z,50.23
2023-01-08T12:23:13.276Z,47.63
2023-01-08T12:26:06.277Z,48.37
2023-01-08T12:28:52.457Z,47.77
2023-01-08T12:31:46.376Z,47.65
2023-01-08T12:34:18.723Z,47.98
2023-01-08T12:36:46.890Z,47.19
2023-01-08T12:39:27.230Z,47.09
2023-01-08T12:41:54.512Z,46.98
2023-01-08T12:44:23.556Z,47.19
2023-01-08T12:46:50.202Z,46.15
2023-01-08T12:49:24.296Z,45.69
2023-01-08T12:51:53.862Z,43.46
2023-01-08T12:54:57.150Z,42.99
2023-01-08T12:57:34.076Z,42.33
2023-01-08T13:00:26.325Z,40.92
2023-01-08T13:03:01.239Z,37.91
2023-01-08T13:05:29.678Z,36.92
2023-01-08T13:08:04.372Z,36.32
2023-01-08T13:10:31.042Z,36.64
2023-01-08T13:12:58.440Z,36.13
2023-01-08T13:15:25.948Z,36.34
2023-01-08T13:17:57.563Z,36.46
2023-01-08T13:20:27.539Z,36.92
2023-01-08T13:22:56.176Z,37.54
2023-01-08T13:25:33.100Z,38.93
2023-01-08T13:28:19.549Z,39.90
2023-01-08T13:30:48.562Z,40.29
2023-01-08T13:33:38.922Z,40.58
2023-01-08T13:36:29.720Z,40.69
2023-01-08T13:39:11.717Z,41.24
2023-01-08T13:41:58.771Z,42.36
2023-01-08T13:44:28.264Z,42.72
2023-01-08T13:46:57.413Z,42.66
2023-01-08T13:49:43.897Z,41.92
2023-01-08T13:52:34.394Z,42.68
2023-01-08T13:55:02.672Z,42.68
2023-01-08T13:57:51.171Z,43.52
2023-01-08T14:00:28.782Z,42.84
2023-01-08T14:02:55.533Z,42.79
2023-01-08T14:05:27.656Z,43.06
2023-01-08T14:07:54.494Z,42.88
2023-01-08T14:10:21.937Z,42.93
2023-01-08T14:12:51.451Z,43.02
2023-01-08T14:15:25.977Z,43.18
2023-01-08T14:17:53.331Z,42.85
2023-01-08T14:20:32.301Z,42.95
2023-01-08T14:23:00.833Z,43.49
2023-01-08T14:25:27.890Z,43.33
2023-01-08T14:28:00.424Z,43.00
2023-01-08T14:30:27.299Z,42.55
2023-01-08T14:32:55.571Z,41.97
2023-01-08T14:35:32.054Z,41.61
2023-01-08T14:38:00.651Z,41.96
2023-01-08T14:40:32.703Z,41.79
2023-01-08T14:43:03.066Z,41.66
2023-01-08T14:45:32.066Z,41.29
2023-01-08T14:48:26.768Z,41.37
2023-01-08T14:50:58.206Z,42.11
2023-01-08T14:53:36.310Z,41.50
2023-01-08T14:56:04.262Z,41.14
2023-01-08T14:58:36.873Z,41.75
2023-01-08T15:01:07.835Z,42.01
2023-01-08T15:03:39.301Z,42.02
2023-01-08T15:06:06.888Z,42.13
2023-01-08T15:08:38.895Z,41.82
2023-01-08T15:11:25.839Z,41.98
2023-01-08T15:13:56.680Z,41.83
2023-01-08T15:16:39.829Z,42.58
2023-01-08T15:19:10.176Z,42.05
2023-01-08T15:21:36.818Z,41.82
2023-01-08T15:24:04.732Z,42.04
2023-01-08T15:26:33.431Z,42.18
2023-01-08T15:29:06.780Z,42.06
2023-01-08T15:31:39.355Z,43.56
2023-01-08T15:34:08.000Z,43.39
2023-01-08T15:36:36.786Z,43.27
2023-01-08T15:39:04.471Z,45.63
2023-01-08T15:41:54.907Z,43.16
2023-01-08T15:44:22.253Z,42.40
2023-01-08T15:46:49.117Z,42.87
2023-01-08T15:49:17.101Z,42.19
2023-01-08T15:51:46.159Z,42.24
2023-01-08T15:54:13.228Z,42.47
2023-01-08T15:56:40.099Z,42.59
2023-01-08T15:59:07.249Z,42.25
2023-01-08T16:01:33.967Z,42.08
2023-01-08T16:04:00.762Z,42.04
2023-01-08T16:06:27.445Z,41.71
2023-01-08T16:08:57.255Z,41.95
2023-01-08T16:11:23.895Z,41.82
2023-01-08T16:13:50.898Z,42.34
2023-01-08T16:16:17.926Z,41.93
2023-01-08T16:18:44.994Z,41.33
2023-01-08T16:21:12.009Z,41.81
2023-01-08T16:23:39.339Z,41.27
2023-01-08T16:26:06.747Z,41.99
2023-01-08T16:28:35.071Z,42.05
2023-01-08T16:31:02.220Z,41.17
2023-01-08T16:33:29.095Z,41.80
2023-01-08T16:35:59.780Z,42.15
2023-01-08T16:38:26.636Z,42.06
2023-01-08T16:40:55.854Z,41.94
2023-01-08T16:43:23.932Z,42.94
2023-01-08T16:45:50.926Z,43.15
2023-01-08T16:48:17.902Z,43.50
2023-01-08T16:50:44.736Z,43.69
2023-01-08T16:53:11.722Z,43.70
2023-01-08T16:55:39.529Z,44.78
2023-01-08T16:58:06.895Z,44.67
2023-01-08T17:00:39.159Z,44.61
2023-01-08T17:03:06.743Z,44.36
2023-01-08T17:05:35.951Z,44.71
2023-01-08T17:08:02.710Z,44.78
2023-01-08T17:10:29.934Z,44.57
2023-01-08T17:12:56.678Z,44.37
2023-01-08T17:15:25.867Z,44.71
2023-01-08T17:17:52.761Z,44.76
2023-01-08T17:20:19.738Z,44.48
2023-01-08T17:22:49.061Z,44.18
2023-01-08T17:25:15.697Z,44.44
2023-01-08T17:27:42.842Z,43.95
2023-01-08T17:30:11.206Z,43.98
2023-01-08T17:32:39.197Z,45.02
2023-01-08T17:35:06.635Z,45.01
2023-01-08T17:37:33.412Z,45.48
2023-01-08T17:40:01.511Z,45.07
2023-01-08T17:42:28.966Z,44.85
2023-01-08T17:44:57.583Z,46.23
2023-01-08T17:47:24.755Z,45.71
2023-01-08T17:49:52.346Z,45.73
2023-01-08T17:52:19.328Z,46.09
2023-01-08T17:54:48.969Z,45.86
2023-01-08T17:57:16.472Z,45.45
2023-01-08T17:59:44.267Z,45.82
2023-01-08T18:02:14.911Z,45.67
2023-01-08T18:04:43.203Z,46.19
2023-01-08T18:07:09.816Z,46.31
2023-01-08T19:35:50.092Z,99.56
2023-01-08T19:38:17.442Z,82.75
2023-01-08T19:40:44.258Z,78.17
2023-01-08T19:43:30.774Z,74.81
2023-01-08T19:46:03.616Z,73.31
2023-01-08T19:48:30.654Z,72.13
2023-01-08T19:50:57.590Z,69.50
2023-01-08T19:53:24.376Z,67.72
2023-01-08T19:55:51.099Z,66.83
2023-01-08T19:58:19.859Z,64.65
2023-01-08T20:00:47.164Z,60.23
2023-01-08T20:03:15.078Z,60.06
2023-01-08T20:05:42.345Z,59.63
2023-01-08T20:08:09.153Z,57.39
2023-01-08T20:10:36.020Z,54.51
2023-01-08T20:13:03.287Z,54.08
2023-01-08T20:15:30.371Z,54.44
2023-01-08T20:17:57.577Z,54.16
2023-01-08T20:20:24.615Z,54.06
2023-01-08T20:22:51.463Z,53.85
2023-01-08T20:25:18.420Z,54.10
2023-01-08T20:27:45.455Z,54.20
2023-01-08T20:30:14.855Z,53.54
2023-01-08T20:32:41.981Z,53.86
2023-01-08T20:35:09.342Z,53.56
2023-01-08T20:37:36.316Z,52.97
2023-01-08T20:40:03.251Z,52.93
2023-01-08T20:42:33.976Z,52.47
2023-01-08T20:45:02.057Z,52.19
2023-01-08T20:47:28.900Z,52.63
2023-01-08T20:49:55.726Z,53.11
2023-01-08T20:52:22.451Z,52.36
2023-01-08T20:54:49.262Z,52.20
2023-01-08T20:57:16.021Z,52.23
2023-01-08T20:59:42.900Z,52.53
2023-01-08T21:02:11.502Z,53.37
2023-01-08T21:04:41.711Z,53.26
2023-01-08T21:07:08.544Z,51.86
2023-01-08T21:09:35.511Z,51.04
2023-01-08T21:12:02.278Z,50.82
2023-01-08T21:14:29.040Z,50.43
2023-01-08T21:16:56.643Z,50.08
2023-01-08T21:19:23.472Z,50.12
2023-01-08T21:21:50.328Z,49.81
2023-01-08T21:24:17.105Z,49.38
2023-01-08T21:26:44.599Z,49.77
2023-01-08T21:29:12.092Z,50.44
2023-01-08T21:31:39.081Z,50.20
2023-01-08T21:34:06.366Z,50.63
2023-01-08T21:36:34.513Z,49.84
2023-01-08T21:39:01.660Z,49.40
2023-01-08T21:41:47.761Z,49.54
2023-01-08T21:44:40.258Z,49.60
2023-01-08T21:47:09.223Z,50.14
2023-01-08T21:49:36.274Z,48.99
2023-01-08T21:52:22.428Z,49.27
2023-01-08T21:54:49.549Z,49.45
2023-01-08T21:57:16.889Z,49.54
2023-01-08T21:59:43.673Z,50.02
2023-01-08T22:02:18.300Z,48.84
2023-01-08T22:04:45.261Z,48.89
2023-01-08T22:07:12.955Z,48.21
2023-01-08T22:09:39.773Z,47.71
2023-01-08T22:12:07.316Z,47.77
2023-01-08T22:14:34.732Z,48.19
2023-01-08T22:17:04.121Z,48.16
2023-01-08T22:19:31.020Z,48.27
2023-01-08T22:21:57.767Z,49.29
2023-01-08T22:24:24.507Z,49.17
2023-01-08T22:26:51.318Z,49.22
2023-01-08T22:29:18.246Z,49.30
2023-01-08T22:31:45.024Z,49.07
2023-01-08T22:34:17.085Z,49.86
2023-01-08T22:36:44.900Z,50.24
2023-01-08T22:39:11.926Z,48.83
2023-01-08T22:41:38.832Z,47.60
2023-01-08T22:44:05.747Z,48.55
2023-01-08T22:46:32.542Z,48.36
2023-01-08T22:48:59.320Z,48.75
2023-01-08T22:51:29.148Z,48.04
2023-01-08T22:53:56.814Z,48.07
2023-01-08T22:56:23.952Z,47.75
2023-01-08T22:58:50.791Z,46.67
2023-01-08T23:01:19.831Z,46.13
2023-01-08T23:03:50.678Z,46.13
2023-01-08T23:06:17.768Z,45.64
2023-01-08T23:08:45.230Z,45.70
2023-01-08T23:11:14.902Z,47.10
2023-01-08T23:13:41.784Z,47.87
2023-01-08T23:16:09.981Z,47.06
2023-01-08T23:18:37.005Z,46.35
2023-01-08T23:21:05.184Z,46.88
2023-01-08T23:23:32.081Z,47.51
2023-01-08T23:26:10.644Z,45.87
2023-01-08T23:28:37.682Z,44.92
2023-01-08T23:31:08.723Z,45.17
2023-01-08T23:33:35.545Z,44.51
2023-01-08T23:36:03.121Z,44.80
2023-01-08T23:38:29.912Z,45.79
2023-01-08T23:40:56.859Z,45.19
2023-01-08T23:43:23.763Z,45.23
2023-01-08T23:45:50.741Z,44.99
2023-01-08T23:48:17.507Z,44.37
2023-01-08T23:50:44.318Z,43.87
2023-01-08T23:53:11.055Z,44.15
2023-01-08T23:55:37.837Z,43.50
2023-01-08T23:58:04.501Z,42.93
